Time;durP1;ratioP1;P1;durP2;ratioP2;P2;SDS_P1;SDS_P2;PMS_P1;PMS_P2;Temp;Humidity;BMP_temperature;BMP_pressure;BME280_temperature;BME280_humidity;BME280_pressure;Samples;Min_cycle;Max_cycle;Signal;HPM_P1;HPM_P2
2022/05/16 00:00:04;;;;;;;2.02;1.80;;;;;;;21.50;48.95;99761.04;1809448;79;20970;-67
2022/05/16 00:02:32;;;;;;;2.17;1.98;;;;;;;21.48;48.95;99760.46;1809752;79;21099;-68
2022/05/16 00:04:59;;;;;;;2.30;2.02;;;;;;;21.47;48.95;99766.41;1809722;79;21091;-68
2022/05/16 00:07:25;;;;;;;2.02;1.82;;;;;;;21.43;48.97;99762.52;1809605;79;21070;-67
2022/05/16 00:09:52;;;;;;;2.30;1.80;;;;;;;21.45;48.99;99771.77;1796837;79;21489;-68
2022/05/16 00:12:20;;;;;;;2.92;2.20;;;;;;;21.44;48.99;99767.41;1777691;80;21009;-67
2022/05/16 00:14:48;;;;;;;2.50;2.30;;;;;;;21.42;49.01;99767.61;1777848;80;21025;-68
2022/05/16 00:17:14;;;;;;;3.40;2.05;;;;;;;21.42;49.03;99771.66;1777658;80;21096;-69
2022/05/16 00:19:41;;;;;;;1.87;1.75;;;;;;;21.40;49.04;99776.48;1777770;80;21041;-67
2022/05/16 00:22:08;;;;;;;3.75;2.47;;;;;;;21.39;49.01;99766.75;1777830;80;21478;-67
2022/05/16 00:24:35;;;;;;;2.83;1.95;;;;;;;21.37;49.03;99769.69;1777705;80;21005;-67
2022/05/16 00:27:04;;;;;;;3.12;1.92;;;;;;;21.36;49.02;99774.81;1762896;79;21593;-68
2022/05/16 00:29:31;;;;;;;2.95;1.90;;;;;;;21.35;49.04;99773.16;1809582;79;21145;-67
2022/05/16 00:31:57;;;;;;;2.15;1.95;;;;;;;21.35;49.05;99771.00;1810015;79;20983;-67
2022/05/16 00:34:27;;;;;;;2.62;2.22;;;;;;;21.34;49.05;99770.69;1809590;79;20991;-68
2022/05/16 00:36:55;;;;;;;2.10;1.90;;;;;;;21.33;49.06;99765.02;1809581;79;20982;-67
2022/05/16 00:39:21;;;;;;;3.10;2.67;;;;;;;21.31;49.07;99775.23;1809949;79;21458;-67
2022/05/16 00:41:51;;;;;;;2.95;2.42;;;;;;;21.30;49.10;99775.74;1809888;79;20963;-67
2022/05/16 00:44:18;;;;;;;2.42;2.10;;;;;;;21.29;49.09;99770.61;1792796;77;21069;-67
2022/05/16 00:46:47;;;;;;;2.17;1.95;;;;;;;21.28;49.08;99775.16;1788889;80;21089;-66
2022/05/16 00:49:17;;;;;;;2.15;1.95;;;;;;;21.27;49.10;99776.78;1788846;80;21065;-67
2022/05/16 00:51:52;;;;;;;2.72;2.05;;;;;;;21.27;49.10;99780.83;1786717;78;21069;-68
2022/05/16 00:54:35;;;;;;;1.80;1.60;;;;;;;21.25;49.09;99777.52;1842686;77;21779;-68
2022/05/16 00:57:08;;;;;;;2.10;1.90;;;;;;;21.24;49.11;99777.23;1825403;77;21868;-67
2022/05/16 01:00:03;;;;;;;2.37;1.98;;;;;;;21.22;49.13;99777.47;1849624;77;21108;-68
2022/05/16 01:05:16;;;;;;;2.40;2.12;;;;;;;21.18;49.15;99774.42;1786140;80;21022;-67
2022/05/16 01:07:44;;;;;;;2.37;2.17;;;;;;;21.16;49.16;99778.42;1786001;80;21245;-67
2022/05/16 01:10:18;;;;;;;1.75;1.65;;;;;;;21.14;49.21;99772.44;1786040;80;21066;-67
2022/05/16 01:12:48;;;;;;;1.87;1.67;;;;;;;21.14;49.21;99776.48;1785288;80;21038;-68
2022/05/16 01:15:36;;;;;;;2.20;2.02;;;;;;;21.12;49.21;99772.67;1786234;80;21526;-67
2022/05/16 01:18:05;;;;;;;2.50;2.08;;;;;;;21.11;49.23;99775.59;1793336;79;21026;-67
2022/05/16 01:20:50;;;;;;;2.52;2.00;;;;;;;21.09;49.22;99770.42;1818098;78;21134;-67
2022/05/16 01:23:18;;;;;;;2.42;1.70;;;;;;;21.08;49.25;99761.23;1808492;79;21577;-67
2022/05/16 01:25:45;;;;;;;2.25;1.87;;;;;;;21.07;49.25;99770.38;1818244;79;21069;-67
2022/05/16 01:28:13;;;;;;;1.95;1.80;;;;;;;21.05;49.26;99767.91;1818353;79;21511;-67
2022/05/16 01:30:46;;;;;;;2.47;1.92;;;;;;;21.05;49.27;99771.15;1792506;79;21537;-67
2022/05/16 01:33:11;;;;;;;1.90;1.67;;;;;;;21.03;49.27;99767.87;1818286;78;21094;-67
2022/05/16 01:35:37;;;;;;;2.30;2.10;;;;;;;21.03;49.28;99770.56;1817057;79;21073;-67
2022/05/16 01:38:18;;;;;;;2.80;1.98;;;;;;;21.01;49.27;99762.19;1818277;79;21085;-68
2022/05/16 01:40:58;;;;;;;1.90;1.80;;;;;;;21.00;49.28;99765.93;1818308;79;21593;-67
2022/05/16 01:43:29;;;;;;;2.20;1.98;;;;;;;21.00;49.28;99763.77;1818182;79;21521;-67
2022/05/16 01:45:55;;;;;;;2.15;1.95;;;;;;;20.98;49.29;99767.23;1818360;79;21135;-68
2022/05/16 01:48:22;;;;;;;2.52;2.10;;;;;;;20.98;49.31;99776.69;1818214;79;21006;-68
2022/05/16 01:50:50;;;;;;;2.58;1.90;;;;;;;20.96;49.31;99774.22;1818026;79;21550;-68
2022/05/16 01:53:17;;;;;;;2.10;1.90;;;;;;;20.95;49.31;99775.80;1820479;78;21580;-66
2022/05/16 01:55:43;;;;;;;2.15;1.77;;;;;;;20.94;49.32;99768.77;1827874;78;21078;-68
2022/05/16 01:58:10;;;;;;;2.72;2.20;;;;;;;20.94;49.31;99774.98;1827638;78;21137;-67
2022/05/16 02:00:36;;;;;;;3.15;2.05;;;;;;;20.93;49.28;99772.52;1827508;78;21472;-67
2022/05/16 02:03:05;;;;;;;2.05;1.70;;;;;;;20.93;49.32;99769.81;1827655;78;21018;-68
2022/05/16 02:05:31;;;;;;;2.10;1.90;;;;;;;20.90;49.33;99767.06;1827492;78;21019;-67
2022/05/16 02:07:58;;;;;;;2.50;1.82;;;;;;;20.90;49.35;99768.92;1826437;78;21532;-68
2022/05/16 02:10:26;;;;;;;2.05;1.85;;;;;;;20.89;49.32;99764.59;1827511;77;21192;-67
2022/05/16 02:12:53;;;;;;;1.70;1.60;;;;;;;20.88;49.32;99771.87;1827478;78;21036;-68
2022/05/16 02:15:21;;;;;;;2.15;1.90;;;;;;;20.87;49.32;99770.22;1827652;78;20992;-67
2022/05/16 02:17:49;;;;;;;3.60;2.30;;;;;;;20.87;49.31;99764.00;1827584;78;20989;-68
2022/05/16 02:20:17;;;;;;;2.27;1.98;;;;;;;20.86;49.31;99765.05;1827629;77;21020;-68
2022/05/16 02:25:34;;;;;;;2.85;2.27;;;;;;;20.84;49.29;99770.67;1826306;78;21074;-68
2022/05/16 02:28:01;;;;;;;3.00;2.12;;;;;;;20.83;49.32;99768.23;1797282;78;21669;-68
2022/05/16 02:30:27;;;;;;;2.98;1.90;;;;;;;20.81;49.34;99766.58;1827433;78;21064;-67
2022/05/16 02:32:55;;;;;;;2.60;2.33;;;;;;;20.80;49.31;99771.70;1827595;78;21071;-67
2022/05/16 02:35:22;;;;;;;3.00;2.17;;;;;;;20.79;49.35;99770.05;1827708;78;21819;-67
2022/05/16 02:37:49;;;;;;;2.22;2.02;;;;;;;20.79;49.34;99767.88;1827520;78;20968;-68
2022/05/16 02:40:15;;;;;;;2.67;2.30;;;;;;;20.77;49.36;99766.76;1827612;78;21527;-68
2022/05/16 02:42:42;;;;;;;1.72;1.62;;;;;;;20.78;49.35;99767.57;1816854;78;21008;-67
2022/05/16 02:45:11;;;;;;;2.98;2.22;;;;;;;20.76;49.37;99769.15;1826926;77;20996;-68
2022/05/16 02:47:38;;;;;;;2.42;2.12;;;;;;;20.75;49.37;99768.88;1827497;77;21133;-68
2022/05/16 02:50:06;;;;;;;2.30;2.10;;;;;;;20.73;49.37;99777.73;1827476;78;21005;-67
2022/05/16 02:52:34;;;;;;;3.33;2.30;;;;;;;20.73;49.37;99770.17;1827436;78;21024;-68
2022/05/16 02:55:01;;;;;;;2.42;2.22;;;;;;;20.73;49.34;99783.67;1818872;78;21522;-68
2022/05/16 02:57:30;;;;;;;2.40;2.00;;;;;;;20.72;49.38;99779.31;1817609;79;21010;-67
2022/05/16 02:59:57;;;;;;;2.50;2.30;;;;;;;20.72;49.39;99774.73;1803975;79;21132;-68
2022/05/16 03:02:25;;;;;;;2.85;2.60;;;;;;;20.71;49.36;99775.80;1785871;80;21522;-68
2022/05/16 03:04:53;;;;;;;2.02;1.85;;;;;;;20.70;49.38;99780.89;1785949;80;21038;-68
2022/05/16 03:07:19;;;;;;;2.20;1.98;;;;;;;20.70;49.37;99778.72;1786013;80;21593;-68
2022/05/16 03:09:47;;;;;;;3.12;2.12;;;;;;;20.70;49.39;99781.42;1786066;80;21072;-67
2022/05/16 03:12:13;;;;;;;2.95;2.15;;;;;;;20.69;49.41;99783.31;1785913;80;21127;-67
2022/05/16 03:14:40;;;;;;;2.75;2.17;;;;;;;20.69;49.42;99779.80;1786010;80;21010;-69
2022/05/16 03:17:07;;;;;;;2.65;2.12;;;;;;;20.68;49.41;99783.53;1787010;79;21499;-67
2022/05/16 03:19:35;;;;;;;3.30;1.90;;;;;;;20.67;49.43;99782.72;1785953;80;21101;-68
2022/05/16 03:22:04;;;;;;;4.00;2.00;;;;;;;20.67;49.44;99781.88;1786049;80;21010;-68
2022/05/16 03:24:31;;;;;;;3.10;2.27;;;;;;;20.66;49.46;99778.91;1786152;80;21890;-68
2022/05/16 03:26:59;;;;;;;2.30;2.00;;;;;;;20.66;49.46;99778.91;1785918;80;21045;-68
2022/05/16 03:29:26;;;;;;;2.42;2.02;;;;;;;20.65;49.47;99782.64;1785920;80;21534;-67
2022/05/16 03:31:53;;;;;;;3.20;2.30;;;;;;;20.65;49.47;99782.64;1785940;80;21004;-68
2022/05/16 03:34:20;;;;;;;2.47;2.00;;;;;;;20.65;49.51;99778.59;1761972;80;21626;-67
2022/05/16 03:36:46;;;;;;;2.92;2.42;;;;;;;20.64;49.52;99782.36;1785952;80;21081;-67
2022/05/16 03:41:57;;;;;;;3.15;2.10;;;;;;;20.65;49.52;99781.30;1787573;79;21062;-68
2022/05/16 03:44:24;;;;;;;2.72;2.27;;;;;;;20.64;49.54;99782.36;1818235;79;21566;-67
2022/05/16 03:46:51;;;;;;;3.75;2.50;;;;;;;20.62;49.53;99787.45;1818270;79;21112;-69
2022/05/16 03:49:18;;;;;;;3.00;2.33;;;;;;;20.63;49.53;99791.00;1818072;79;21073;-68
2022/05/16 03:51:45;;;;;;;2.80;2.20;;;;;;;20.63;49.54;99793.70;1793438;78;21293;-68
2022/05/16 03:54:11;;;;;;;3.90;2.90;;;;;;;20.64;49.54;99790.46;1789868;80;21079;-67
2022/05/16 03:56:38;;;;;;;3.02;2.17;;;;;;;20.64;49.57;99789.11;1794879;79;21033;-67
2022/05/16 03:59:05;;;;;;;2.35;2.00;;;;;;;20.63;49.54;99788.30;1794978;80;21075;-67
2022/05/16 04:01:32;;;;;;;2.42;2.05;;;;;;;20.65;49.53;99790.73;1794953;79;21133;-68
2022/05/16 04:03:59;;;;;;;2.60;2.00;;;;;;;20.65;49.55;99790.73;1794829;80;21004;-68
2022/05/16 04:06:26;;;;;;;2.80;2.15;;;;;;;20.65;49.55;99786.19;1794996;80;21019;-67
2022/05/16 04:08:54;;;;;;;3.15;2.60;;;;;;;20.66;49.56;99784.30;1796041;78;20999;-68
2022/05/16 04:11:21;;;;;;;2.72;2.52;;;;;;;20.68;49.57;99792.45;1794884;80;21079;-67
2022/05/16 04:13:48;;;;;;;2.35;2.02;;;;;;;20.70;49.55;99796.27;1794972;80;21236;-68
2022/05/16 04:16:14;;;;;;;3.35;2.40;;;;;;;20.71;49.54;99791.18;1794953;80;21071;-67
2022/05/16 04:18:41;;;;;;;2.80;2.10;;;;;;;20.72;49.53;99791.45;1795280;80;21476;-68
2022/05/16 04:21:08;;;;;;;2.47;2.10;;;;;;;20.74;49.53;99789.34;1795036;80;21043;-67
2022/05/16 04:23:34;;;;;;;2.33;2.00;;;;;;;20.76;49.53;99789.93;1795123;80;21063;-68
2022/05/16 04:26:01;;;;;;;3.52;2.20;;;;;;;20.79;49.53;99786.78;1796112;78;21600;-68
2022/05/16 04:28:28;;;;;;;3.30;2.15;;;;;;;20.80;49.50;99792.45;1794989;79;21504;-67
2022/05/16 04:30:54;;;;;;;2.95;2.40;;;;;;;20.81;49.50;99781.97;1795225;79;21027;-68
2022/05/16 04:33:21;;;;;;;2.85;2.50;;;;;;;20.83;49.46;99793.34;1794957;80;21015;-68
2022/05/16 04:35:47;;;;;;;2.77;2.50;;;;;;;20.85;49.46;99783.67;1795020;80;21047;-68
2022/05/16 04:38:14;;;;;;;2.70;2.50;;;;;;;20.86;49.44;99778.05;1795086;80;21133;-68
2022/05/16 04:43:25;;;;;;;2.85;2.52;;;;;;;20.88;49.44;99782.68;1816289;78;21040;-68
2022/05/16 04:45:52;;;;;;;2.60;2.40;;;;;;;20.89;49.44;99784.30;1827562;78;21032;-68
2022/05/16 04:48:18;;;;;;;2.70;2.22;;;;;;;20.90;49.43;99787.31;1827651;78;21113;-67
2022/05/16 04:50:45;;;;;;;2.95;2.65;;;;;;;20.91;49.41;99784.89;1827558;78;21131;-68
2022/05/16 04:53:11;;;;;;;3.30;2.30;;;;;;;20.92;49.41;99787.90;1827514;78;21007;-67
2022/05/16 04:55:39;;;;;;;3.10;2.33;;;;;;;20.92;49.41;99785.20;1810656;77;20994;-68
2022/05/16 04:58:05;;;;;;;3.12;2.70;;;;;;;20.94;49.40;99786.32;1807009;79;21002;-68
2022/05/16 05:00:32;;;;;;;2.90;2.58;;;;;;;20.96;49.39;99788.25;1778166;80;20977;-67
2022/05/16 05:02:59;;;;;;;3.08;2.50;;;;;;;20.96;49.39;99787.72;1777861;80;21170;-67
2022/05/16 05:05:25;;;;;;;2.55;2.33;;;;;;;20.97;49.38;99790.69;1777951;80;21484;-67
2022/05/16 05:07:52;;;;;;;2.87;2.58;;;;;;;20.99;49.36;99789.11;1777778;80;20966;-67
2022/05/16 05:15:56;;;;;;;2.83;2.37;;;;;;;21.01;49.36;99783.79;1778998;79;21136;-68
2022/05/16 05:18:23;;;;;;;2.83;2.52;;;;;;;21.02;49.35;99780.55;1777300;80;21013;-67
2022/05/16 05:20:50;;;;;;;3.17;2.58;;;;;;;20.98;49.36;99777.50;1778197;80;20985;-67
2022/05/16 05:23:17;;;;;;;4.00;2.72;;;;;;;21.04;49.35;99782.48;1777990;80;21506;-67
2022/05/16 05:25:43;;;;;;;3.12;2.50;;;;;;;21.04;49.34;99780.33;1777986;80;21079;-67
2022/05/16 05:28:09;;;;;;;3.08;2.45;;;;;;;21.06;49.34;99779.02;1777940;80;21916;-67
2022/05/16 05:30:37;;;;;;;3.27;2.87;;;;;;;21.08;49.32;99780.14;1777786;80;21465;-68
2022/05/16 05:33:04;;;;;;;2.98;2.77;;;;;;;21.09;49.30;99787.17;1778939;79;21458;-68
2022/05/16 05:35:31;;;;;;;2.95;2.55;;;;;;;21.10;49.28;99790.17;1777826;80;21010;-67
2022/05/16 05:37:57;;;;;;;3.08;2.35;;;;;;;21.11;49.26;99788.59;1777831;80;21006;-68
2022/05/16 05:40:24;;;;;;;2.58;2.37;;;;;;;21.12;49.27;99784.01;1777973;80;21143;-67
2022/05/16 05:42:50;;;;;;;3.33;2.75;;;;;;;21.13;49.25;99782.94;1804179;79;21139;-67
2022/05/16 05:45:18;;;;;;;2.85;2.50;;;;;;;21.13;49.28;99777.03;1809665;79;21013;-68
2022/05/16 05:47:45;;;;;;;2.95;2.75;;;;;;;21.13;49.25;99778.38;1809786;79;20990;-67
2022/05/16 05:50:11;;;;;;;3.17;2.87;;;;;;;21.14;49.22;99780.00;1792612;79;21005;-68
2022/05/16 05:52:38;;;;;;;2.92;2.70;;;;;;;21.16;49.21;99786.53;1777762;79;21092;-67
2022/05/16 05:55:06;;;;;;;2.80;2.60;;;;;;;21.16;49.21;99782.48;1787725;79;21071;-67
2022/05/16 05:57:33;;;;;;;3.42;2.90;;;;;;;21.15;49.21;99785.72;1819248;78;21055;-68
2022/05/16 06:00:00;;;;;;;3.05;2.75;;;;;;;21.16;49.19;99785.17;1827439;78;21023;-67
2022/05/16 06:02:26;;;;;;;3.50;2.55;;;;;;;21.18;49.19;99784.41;1827606;78;20996;-67
2022/05/16 06:04:53;;;;;;;2.60;2.37;;;;;;;21.18;49.18;99784.41;1827707;77;21501;-68
2022/05/16 06:07:19;;;;;;;3.05;2.75;;;;;;;21.18;49.19;99783.06;1807695;78;21071;-67
2022/05/16 06:09:46;;;;;;;3.17;2.87;;;;;;;21.19;49.19;99784.72;1794994;80;20992;-68
2022/05/16 06:12:13;;;;;;;4.08;3.15;;;;;;;21.19;49.18;99785.53;1794956;80;21015;-68
2022/05/16 06:14:43;;;;;;;2.80;2.60;;;;;;;21.20;49.16;99785.80;1795054;79;21027;-68
2022/05/16 06:17:08;;;;;;;2.85;2.62;;;;;;;21.21;49.15;99785.30;1795034;79;21087;-68
2022/05/16 06:19:36;;;;;;;3.40;3.10;;;;;;;21.21;49.11;99782.06;1795128;80;21043;-68
2022/05/16 06:22:03;;;;;;;3.25;2.95;;;;;;;21.22;49.13;99792.33;1795289;80;21015;-68
2022/05/16 06:27:15;;;;;;;3.10;2.83;;;;;;;21.24;49.10;99784.81;1795325;80;21123;-67
2022/05/16 06:29:41;;;;;;;4.62;2.67;;;;;;;21.23;49.09;99779.13;1795159;80;21978;-68
2022/05/16 06:32:07;;;;;;;2.83;2.52;;;;;;;21.25;49.08;99781.06;1795258;80;21023;-67
2022/05/16 06:34:35;;;;;;;2.67;2.47;;;;;;;21.26;49.08;99781.34;1794811;80;21067;-67
2022/05/16 06:37:02;;;;;;;3.00;2.70;;;;;;;21.27;49.08;99782.99;1795021;80;21004;-68
2022/05/16 06:39:28;;;;;;;2.77;2.58;;;;;;;21.28;49.07;99781.92;1795011;80;20992;-68
2022/05/16 06:41:55;;;;;;;2.75;2.55;;;;;;;21.29;49.08;99782.22;1810531;78;21129;-68
2022/05/16 06:44:22;;;;;;;2.87;2.67;;;;;;;21.30;49.07;99786.55;1827635;78;21560;-68
2022/05/16 06:46:49;;;;;;;2.62;2.42;;;;;;;21.31;49.04;99776.59;1827429;78;21019;-68
2022/05/16 06:49:16;;;;;;;2.70;2.50;;;;;;;21.32;49.05;99779.03;1827667;78;21449;-68
2022/05/16 06:51:44;;;;;;;3.55;2.70;;;;;;;21.34;49.05;99781.50;1827669;78;21047;-68
2022/05/16 06:54:10;;;;;;;3.45;3.15;;;;;;;21.33;49.04;99763.13;1826781;78;21149;-68
2022/05/16 06:56:37;;;;;;;2.58;2.37;;;;;;;21.35;49.03;99768.30;1809676;79;21178;-67
2022/05/16 06:59:03;;;;;;;2.70;2.47;;;;;;;21.36;49.05;99763.16;1780653;79;21010;-67
2022/05/16 07:01:30;;;;;;;3.17;2.87;;;;;;;21.37;49.07;99764.28;1777714;80;21492;-68
2022/05/16 07:03:57;;;;;;;2.77;2.58;;;;;;;21.39;49.06;99764.87;1777852;80;20993;-67
2022/05/16 07:06:24;;;;;;;3.02;2.72;;;;;;;21.40;49.06;99761.12;1777664;80;21227;-68
2022/05/16 07:08:50;;;;;;;3.22;2.80;;;;;;;21.43;49.11;99756.30;1777715;80;21033;-68
2022/05/16 07:11:17;;;;;;;3.20;2.90;;;;;;;21.44;49.11;99757.95;1777840;80;21461;-68
2022/05/16 07:13:44;;;;;;;2.90;2.55;;;;;;;21.46;49.17;99751.78;1777780;80;20981;-67
2022/05/16 07:16:10;;;;;;;3.25;2.80;;;;;;;21.48;49.33;99751.84;1778772;79;21053;-68
2022/05/16 07:18:36;;;;;;;3.27;2.98;;;;;;;21.50;49.32;99754.28;1777692;80;21319;-68
2022/05/16 07:21:05;;;;;;;2.98;2.77;;;;;;;21.52;49.35;99758.95;1777781;80;20974;-69
2022/05/16 07:23:32;;;;;;;2.70;2.50;;;;;;;21.53;49.31;99753.82;1777637;80;21520;-69
2022/05/16 07:28:43;;;;;;;3.12;2.83;;;;;;;21.56;49.35;99758.22;1777962;80;20989;-67
2022/05/16 07:31:10;;;;;;;2.98;2.72;;;;;;;21.57;49.42;99752.27;1778711;79;21144;-69
2022/05/16 07:33:38;;;;;;;3.45;3.15;;;;;;;21.58;49.46;99753.93;1777742;80;20974;-68
2022/05/16 07:36:05;;;;;;;3.05;2.75;;;;;;;21.59;49.48;99753.70;1777706;80;20993;-67
2022/05/16 07:38:31;;;;;;;3.50;3.20;;;;;;;21.61;49.52;99752.08;1777772;80;20993;-67
2022/05/16 07:40:58;;;;;;;3.22;3.00;;;;;;;21.63;49.54;99753.20;1792516;79;21115;-68
2022/05/16 07:43:25;;;;;;;3.10;2.80;;;;;;;21.64;49.61;99761.61;1809555;79;21138;-68
2022/05/16 07:45:51;;;;;;;3.10;2.80;;;;;;;21.66;49.72;99756.24;1809832;79;21483;-68
2022/05/16 07:48:19;;;;;;;3.05;2.75;;;;;;;21.68;49.78;99753.31;1803964;79;21149;-68
2022/05/16 07:50:45;;;;;;;3.17;2.87;;;;;;;21.68;49.80;99747.36;1777626;79;20990;-67
2022/05/16 07:53:13;;;;;;;3.25;2.95;;;;;;;21.71;49.77;99753.66;1777699;80;21060;-68
2022/05/16 07:55:43;;;;;;;2.72;2.52;;;;;;;21.72;49.72;99741.76;1777620;80;21144;-69
2022/05/16 07:58:11;;;;;;;2.95;2.67;;;;;;;21.74;49.70;99745.04;1777853;80;20977;-69
2022/05/16 08:00:39;;;;;;;3.17;2.87;;;;;;;21.76;49.80;99749.67;1777798;80;21061;-68
2022/05/16 08:03:11;;;;;;;3.00;2.70;;;;;;;21.78;49.78;99745.38;1777683;80;21009;-68
2022/05/16 08:05:38;;;;;;;3.35;3.05;;;;;;;21.79;49.70;99761.37;1778880;79;21041;-68
2022/05/16 08:10:29;;;;;;;2.95;2.75;;;;;;;21.86;49.75;99761.75;1870246;76;23254;-68
2022/05/16 08:13:01;;;;;;;3.17;2.87;;;;;;;21.83;49.70;99756.81;1826517;78;20921;-68
2022/05/16 08:15:29;;;;;;;3.33;2.87;;;;;;;21.85;49.68;99750.66;1826490;78;21115;-68
2022/05/16 08:17:57;;;;;;;2.72;2.52;;;;;;;21.86;49.68;99754.45;1826423;78;21053;-69
2022/05/16 08:20:24;;;;;;;3.02;2.72;;;;;;;21.88;49.68;99746.10;1826452;78;20986;-69
2022/05/16 08:22:52;;;;;;;3.05;2.70;;;;;;;21.90;49.65;99739.91;1812996;78;20957;-69
2022/05/16 08:25:18;;;;;;;2.47;2.27;;;;;;;21.91;49.63;99753.20;1793927;80;21005;-67
2022/05/16 08:27:45;;;;;;;3.42;3.12;;;;;;;21.92;49.60;99758.07;1794099;80;21140;-69
2022/05/16 08:30:12;;;;;;;3.65;2.80;;;;;;;21.94;49.61;99759.48;1793978;80;20973;-68
2022/05/16 08:32:39;;;;;;;3.08;2.80;;;;;;;21.95;49.60;99755.70;1793994;80;21004;-69
2022/05/16 08:35:08;;;;;;;3.10;2.80;;;;;;;21.96;49.60;99751.11;1794058;80;21078;-68
2022/05/16 08:40:19;;;;;;;3.50;3.20;;;;;;;22.01;49.57;99758.52;1801640;78;21786;-69
2022/05/16 08:43:00;;;;;;;2.83;2.62;;;;;;;22.02;49.52;99757.44;1826383;78;21017;-68
2022/05/16 08:45:41;;;;;;;2.92;2.70;;;;;;;22.04;49.44;99756.66;1826423;78;21013;-68
2022/05/16 08:48:18;;;;;;;3.33;3.02;;;;;;;22.05;49.43;99754.25;1826690;78;21036;-69
2022/05/16 08:50:49;;;;;;;3.27;2.98;;;;;;;22.07;49.37;99765.65;1826461;78;21486;-68
2022/05/16 08:53:43;;;;;;;3.35;3.05;;;;;;;22.07;49.36;99762.95;1826580;78;21910;-68
2022/05/16 08:56:14;;;;;;;3.05;2.83;;;;;;;22.09;49.39;99764.87;1825452;78;21021;-67
2022/05/16 08:58:46;;;;;;;3.70;3.22;;;;;;;22.11;49.35;99764.91;1824940;78;21026;-68
2022/05/16 09:01:20;;;;;;;3.35;2.95;;;;;;;22.12;49.36;99763.86;1825491;78;21486;-68
2022/05/16 09:03:54;;;;;;;3.35;3.05;;;;;;;22.13;49.32;99765.48;1826978;78;21045;-69
2022/05/16 09:06:45;;;;;;;3.20;2.92;;;;;;;22.15;49.27;99776.88;1826487;78;21569;-68
2022/05/16 09:09:21;;;;;;;3.20;2.92;;;;;;;22.16;49.30;99775.83;1822199;78;20994;-69
2022/05/16 09:12:30;;;;;;;3.45;3.15;;;;;;;22.17;49.34;99768.02;1815340;78;21478;-68
2022/05/16 09:15:40;;;;;;;3.50;3.20;;;;;;;22.19;49.28;99763.18;1788016;79;21025;-69
2022/05/16 09:18:27;;;;;;;2.75;2.55;;;;;;;22.21;49.27;99755.34;1778436;79;21088;-68
2022/05/16 09:21:24;;;;;;;3.10;2.75;;;;;;;22.22;49.33;99761.86;1783176;80;21227;-68
2022/05/16 09:24:13;;;;;;;3.20;2.90;;;;;;;22.24;49.26;99761.62;1782432;80;21428;-68
2022/05/16 09:27:02;;;;;;;4.45;3.40;;;;;;;22.24;49.29;99757.02;1782526;80;21003;-69
2022/05/16 09:29:42;;;;;;;3.25;2.95;;;;;;;22.25;49.32;99762.77;1782452;80;21041;-69
2022/05/16 09:32:27;;;;;;;3.30;3.00;;;;;;;22.26;49.27;99767.10;1784068;79;21022;-69
2022/05/16 09:34:54;;;;;;;3.22;2.90;;;;;;;22.27;49.25;99759.28;1782513;79;21137;-69
2022/05/16 09:37:20;;;;;;;2.98;2.67;;;;;;;22.29;49.22;99765.27;1782528;80;21466;-67
2022/05/16 09:39:49;;;;;;;3.17;2.87;;;;;;;22.31;49.25;99762.30;1795011;79;21013;-69
2022/05/16 09:42:25;;;;;;;3.37;3.08;;;;;;;22.34;49.25;99766.69;1814527;79;21498;-68
2022/05/16 09:45:03;;;;;;;3.02;2.80;;;;;;;22.35;49.21;99761.58;1814912;78;21509;-69
2022/05/16 09:47:35;;;;;;;3.22;2.92;;;;;;;22.39;49.20;99760.56;1813729;79;21903;-69
2022/05/16 09:50:27;;;;;;;3.40;3.10;;;;;;;22.41;49.19;99757.59;1814476;79;21065;-69
2022/05/16 09:53:09;;;;;;;3.10;2.87;;;;;;;22.44;49.11;99762.52;1814631;79;21053;-68
2022/05/16 09:55:54;;;;;;;3.20;2.90;;;;;;;22.48;49.12;99756.89;1780059;80;21024;-68
2022/05/16 09:58:25;;;;;;;3.33;3.02;;;;;;;22.51;48.96;99753.71;1803817;79;21044;-68
2022/05/16 10:01:02;;;;;;;3.45;2.90;;;;;;;22.55;48.88;99760.27;1814123;78;21083;-69
2022/05/16 10:03:34;;;;;;;3.17;2.90;;;;;;;22.58;48.90;99759.25;1814535;79;21619;-69
2022/05/16 10:06:10;;;;;;;3.05;2.60;;;;;;;22.64;48.84;99756.59;1813438;78;21466;-69
2022/05/16 10:08:42;;;;;;;2.85;2.60;;;;;;;22.64;48.84;99756.59;1814494;78;21022;-69
2022/05/16 10:11:25;;;;;;;2.90;2.70;;;;;;;22.66;48.89;99758.01;1814541;78;21001;-69
2022/05/16 10:13:52;;;;;;;3.37;3.08;;;;;;;22.68;48.95;99758.58;1814721;78;21342;-70
2022/05/16 10:16:19;;;;;;;2.90;2.65;;;;;;;22.70;48.96;99751.57;1803653;79;20998;-67
2022/05/16 10:18:54;;;;;;;2.80;2.60;;;;;;;22.73;48.99;99756.47;1803529;79;22035;-68
2022/05/16 10:21:41;;;;;;;2.92;2.72;;;;;;;22.78;48.94;99751.14;1813296;79;21037;-69
2022/05/16 10:24:10;;;;;;;2.70;2.47;;;;;;;22.81;48.86;99753.34;1814556;79;21054;-68
2022/05/16 10:26:47;;;;;;;2.85;2.65;;;;;;;22.86;48.84;99747.19;1803694;79;21244;-69
2022/05/16 10:29:22;;;;;;;2.58;2.37;;;;;;;22.88;48.76;99742.34;1803264;79;21065;-68
2022/05/16 10:35:02;;;;;;;2.95;2.75;;;;;;;22.91;48.75;99741.31;1814622;79;21096;-69
2022/05/16 10:37:36;;;;;;;2.90;2.70;;;;;;;22.94;48.72;99750.28;1814569;79;21544;-68
2022/05/16 10:40:11;;;;;;;2.72;2.52;;;;;;;22.96;48.68;99750.03;1802733;78;21081;-70
2022/05/16 10:42:47;;;;;;;2.85;2.65;;;;;;;22.99;48.58;99744.13;1813680;78;21002;-70
2022/05/16 10:45:24;;;;;;;2.77;2.58;;;;;;;23.04;48.64;99741.50;1792581;78;21080;-69
2022/05/16 10:48:05;;;;;;;3.20;2.90;;;;;;;23.10;48.70;99739.69;1814270;78;20987;-69
2022/05/16 10:50:38;;;;;;;3.10;2.80;;;;;;;23.18;48.69;99738.43;1814152;78;21069;-69
2022/05/16 10:53:10;;;;;;;3.00;2.80;;;;;;;23.24;48.71;99734.20;1814907;78;21103;-68
2022/05/16 10:55:51;;;;;;;2.72;2.52;;;;;;;23.32;48.66;99722.91;1804179;78;21062;-69
2022/05/16 10:58:25;;;;;;;2.75;2.52;;;;;;;23.41;48.62;99723.30;1782402;79;21029;-69
2022/05/16 11:01:11;;;;;;;2.98;2.67;;;;;;;23.50;48.63;99722.30;1782431;80;21026;-70
2022/05/16 11:04:13;;;;;;;2.65;2.45;;;;;;;23.55;48.57;99715.59;1782552;79;21033;-69
2022/05/16 11:07:08;;;;;;;2.83;2.62;;;;;;;23.60;48.50;99721.05;1782582;80;21136;-69
2022/05/16 11:09:53;;;;;;;2.80;2.60;;;;;;;23.64;48.41;99719.48;1784417;79;21036;-69
2022/05/16 11:12:44;;;;;;;2.65;2.45;;;;;;;23.69;48.34;99719.52;1794558;78;21514;-70
2022/05/16 11:15:50;;;;;;;2.72;2.52;;;;;;;23.74;48.37;99721.48;1793646;80;21013;-69
2022/05/16 11:18:26;;;;;;;2.40;2.20;;;;;;;23.81;48.33;99718.04;1793532;80;21037;-69
2022/05/16 11:21:04;;;;;;;3.12;2.83;;;;;;;23.90;48.36;99716.51;1793360;79;21521;-70
2022/05/16 11:23:47;;;;;;;2.52;2.25;;;;;;;23.98;48.39;99717.13;1740023;79;20993;-69
2022/05/16 11:26:49;;;;;;;3.10;2.80;;;;;;;24.07;48.36;99701.48;1793857;80;21037;-68
2022/05/16 11:29:36;;;;;;;2.60;2.40;;;;;;;24.16;48.35;99704.52;1794004;78;21485;-69
2022/05/16 11:32:27;;;;;;;2.70;2.50;;;;;;;24.25;48.26;99702.16;1792645;79;21072;-69
2022/05/16 11:35:05;;;;;;;2.20;2.00;;;;;;;24.32;48.23;99710.36;1793967;80;21096;-70
2022/05/16 11:37:46;;;;;;;2.20;2.00;;;;;;;24.42;48.18;99713.70;1793631;79;21498;-70
2022/05/16 11:40:39;;;;;;;2.87;2.67;;;;;;;24.50;48.17;99702.34;1825118;78;21061;-69
2022/05/16 11:43:27;;;;;;;3.00;2.80;;;;;;;24.59;48.18;99697.28;1826128;78;20982;-69
2022/05/16 11:46:23;;;;;;;2.62;2.42;;;;;;;24.65;48.14;99689.99;1825840;78;20993;-69
2022/05/16 11:49:07;;;;;;;2.90;2.70;;;;;;;24.71;48.05;99695.17;1786616;79;21932;-68
2022/05/16 11:52:12;;;;;;;2.90;2.70;;;;;;;24.73;47.97;99690.30;1793783;79;21088;-69
2022/05/16 11:54:50;;;;;;;2.80;2.60;;;;;;;24.78;47.96;99685.97;1770251;79;21005;-69
2022/05/16 12:03:13;;;;;;;3.15;2.85;;;;;;;24.87;47.80;99690.64;1825966;78;21035;-68
2022/05/16 12:05:51;;;;;;;2.80;2.60;;;;;;;24.88;47.77;99684.14;1793551;79;21024;-70
2022/05/16 12:08:32;;;;;;;2.90;2.58;;;;;;;24.91;47.70;99684.95;1790190;80;21443;-69
2022/05/16 12:11:10;;;;;;;2.45;2.25;;;;;;;24.92;47.66;99682.52;1785842;79;20987;-69
2022/05/16 12:13:40;;;;;;;2.80;2.60;;;;;;;24.96;47.63;99680.65;1782381;80;21001;-70
2022/05/16 12:16:18;;;;;;;2.62;2.42;;;;;;;24.99;47.62;99676.03;1781078;79;21141;-69
2022/05/16 12:18:51;;;;;;;2.52;2.30;;;;;;;25.04;47.53;99676.06;1782474;79;20994;-69
2022/05/16 12:21:22;;;;;;;2.85;2.65;;;;;;;25.10;47.51;99666.84;1778874;79;20998;-69
2022/05/16 12:23:54;;;;;;;2.52;2.33;;;;;;;25.19;47.49;99668.48;1782365;80;21059;-69
2022/05/16 12:26:34;;;;;;;2.37;2.17;;;;;;;25.28;47.46;99673.20;1782735;79;21009;-70
2022/05/16 12:29:14;;;;;;;2.40;2.20;;;;;;;25.37;47.40;99676.20;1782390;80;21808;-69